Time;durP1;ratioP1;P1;durP2;ratioP2;P2;SDS_P1;SDS_P2;PMS_P1;PMS_P2;Temp;Humidity;BMP_temperature;BMP_pressure;BME280_temperature;BME280_humidity;BME280_pressure;Samples;Min_cycle;Max_cycle;Signal;HPM_P1;HPM_P2
2023/10/25 00:00:09;;;;;;;10.02;3.58;;;;;;;8.54;100.00;100126.19;5049381;28;20033;-70
2023/10/25 00:02:36;;;;;;;9.73;2.90;;;;;;;8.56;100.00;100132.13;5049300;28;20492;-70
2023/10/25 00:05:02;;;;;;;8.15;3.40;;;;;;;8.54;100.00;100134.19;5049412;28;20024;-70
2023/10/25 00:07:27;;;;;;;8.13;4.25;;;;;;;8.53;100.00;100124.53;5049139;28;20082;-70
2023/10/25 00:09:52;;;;;;;7.05;4.28;;;;;;;8.49;100.00;100122.50;5051180;28;20028;-70
2023/10/25 00:12:18;;;;;;;12.00;3.50;;;;;;;8.48;100.00;100121.66;5068222;28;20111;-70
2023/10/25 00:14:44;;;;;;;10.18;3.65;;;;;;;8.46;100.00;100123.72;5068045;28;20055;-70
2023/10/25 00:17:10;;;;;;;15.18;5.57;;;;;;;8.42;100.00;100111.84;5050195;28;20742;-70
2023/10/25 00:19:35;;;;;;;8.80;3.80;;;;;;;8.40;100.00;100115.72;5067825;28;20036;-70
2023/10/25 00:22:01;;;;;;;9.23;4.43;;;;;;;8.39;100.00;100124.69;5056814;28;20071;-70
2023/10/25 00:24:27;;;;;;;7.40;3.65;;;;;;;8.32;100.00;100108.72;5049053;28;20116;-70
2023/10/25 00:26:52;;;;;;;6.15;3.30;;;;;;;8.34;100.00;100112.81;5048960;28;20694;-70
2023/10/25 00:29:17;;;;;;;10.25;3.88;;;;;;;8.30;100.00;100108.91;5049150;28;20637;-70
2023/10/25 00:31:43;;;;;;;10.10;3.92;;;;;;;8.30;100.00;100100.94;5066593;28;20028;-70
2023/10/25 00:34:09;;;;;;;5.45;3.20;;;;;;;8.27;100.00;100101.34;5068021;28;20036;-70
2023/10/25 00:36:34;;;;;;;9.10;3.75;;;;;;;8.26;100.00;100099.72;5067833;28;20031;-70
2023/10/25 00:38:59;;;;;;;10.02;3.72;;;;;;;8.30;100.00;100110.75;5045435;28;20362;-70
2023/10/25 00:41:25;;;;;;;7.15;2.83;;;;;;;8.26;100.00;100101.56;5048474;28;20068;-70
2023/10/25 00:43:50;;;;;;;7.03;2.88;;;;;;;8.29;100.00;100107.28;5048593;28;20396;-70
2023/10/25 00:46:20;;;;;;;9.00;3.58;;;;;;;8.27;100.00;100105.84;5048414;28;20075;-70
2023/10/25 00:48:47;;;;;;;4.50;2.65;;;;;;;8.22;100.00;100106.44;5063761;28;20027;-70
2023/10/25 00:51:14;;;;;;;4.57;2.70;;;;;;;8.21;100.00;100096.03;5064609;28;20025;-70
2023/10/25 00:53:47;;;;;;;11.20;3.25;;;;;;;8.25;100.00;100097.25;5048600;28;20495;-70
2023/10/25 00:56:14;;;;;;;8.30;4.53;;;;;;;8.23;100.00;100102.78;5048611;28;20036;-70
2023/10/25 00:58:44;;;;;;;6.72;3.97;;;;;;;8.16;100.00;100101.94;5048571;28;20053;-70
2023/10/25 01:01:11;;;;;;;9.80;2.80;;;;;;;8.09;100.00;100087.81;5048713;28;20488;-70
2023/10/25 01:03:36;;;;;;;4.80;2.50;;;;;;;8.21;100.00;100104.00;5049102;28;20072;-70
2023/10/25 01:06:02;;;;;;;5.10;2.83;;;;;;;8.12;100.00;100090.91;5067418;28;20067;-70
2023/10/25 01:08:28;;;;;;;10.13;3.03;;;;;;;8.13;100.00;100089.06;5067247;28;20364;-70
2023/10/25 01:10:54;;;;;;;8.18;3.53;;;;;;;8.16;100.00;100087.84;5067901;28;20383;-70
2023/10/25 01:13:20;;;;;;;7.47;3.20;;;;;;;8.18;100.00;100097.25;5067346;28;20033;-70
2023/10/25 01:15:46;;;;;;;8.05;3.95;;;;;;;8.22;100.00;100092.34;5061115;28;20952;-70
2023/10/25 01:18:12;;;;;;;5.72;2.63;;;;;;;8.20;100.00;100086.41;5048230;28;20040;-70
2023/10/25 01:20:37;;;;;;;5.65;2.78;;;;;;;8.15;100.00;100079.06;5048417;28;20029;-70
2023/10/25 01:23:03;;;;;;;14.27;4.07;;;;;;;8.16;100.00;100078.03;5030317;28;20037;-70
2023/10/25 01:25:28;;;;;;;7.75;3.15;;;;;;;8.16;100.00;100075.38;5048330;28;20036;-69
2023/10/25 01:27:54;;;;;;;6.53;2.92;;;;;;;8.21;100.00;100082.75;5048321;28;20032;-70
2023/10/25 01:30:20;;;;;;;5.05;2.60;;;;;;;8.18;100.00;100080.50;5048185;28;20468;-70
2023/10/25 01:32:45;;;;;;;3.78;2.42;;;;;;;8.13;100.00;100073.94;5048229;28;20035;-69
2023/10/25 01:35:10;;;;;;;4.03;2.58;;;;;;;8.13;100.00;100073.94;5048068;28;20386;-69
2023/10/25 01:37:36;;;;;;;4.65;2.50;;;;;;;8.12;100.00;100074.13;5047987;28;20029;-69
2023/10/25 01:40:05;;;;;;;8.65;3.15;;;;;;;8.10;100.00;100063.72;5061018;28;20039;-69
2023/10/25 01:42:31;;;;;;;6.90;2.70;;;;;;;8.11;100.00;100061.88;5055386;28;20090;-69
2023/10/25 01:44:56;;;;;;;8.50;3.55;;;;;;;8.09;100.00;100062.06;5067065;28;20028;-69
2023/10/25 01:47:22;;;;;;;6.63;3.85;;;;;;;8.11;100.00;100064.53;5044110;28;20082;-69
2023/10/25 01:49:47;;;;;;;6.13;2.90;;;;;;;8.07;100.00;100042.06;5047959;28;20059;-69
2023/10/25 01:52:12;;;;;;;6.43;3.50;;;;;;;8.10;100.00;100050.44;5040662;28;20036;-69
2023/10/25 01:54:40;;;;;;;4.65;2.83;;;;;;;8.08;100.00;100043.69;5049079;28;20036;-69
2023/10/25 01:57:05;;;;;;;7.38;3.58;;;;;;;8.11;100.00;100045.94;5067147;28;20495;-69
2023/10/25 01:59:31;;;;;;;10.38;4.32;;;;;;;8.06;100.00;100035.91;5067063;28;20064;-69
2023/10/25 02:01:56;;;;;;;10.35;3.25;;;;;;;8.07;100.00;100042.88;5059136;28;20028;-70
2023/10/25 02:04:21;;;;;;;6.18;3.50;;;;;;;8.05;100.00;100044.09;5047903;28;20056;-69
2023/10/25 02:06:51;;;;;;;8.05;3.78;;;;;;;8.02;100.00;100036.53;5048028;28;20052;-70
2023/10/25 02:09:17;;;;;;;6.28;2.83;;;;;;;7.98;100.00;100025.47;5063420;28;20033;-70
2023/10/25 02:11:42;;;;;;;8.20;3.35;;;;;;;7.98;100.00;100022.81;5061803;28;20035;-70
2023/10/25 02:14:07;;;;;;;6.28;3.05;;;;;;;7.98;100.00;100022.81;5047541;28;20140;-70
2023/10/25 02:16:33;;;;;;;4.10;2.83;;;;;;;7.91;100.00;100014.00;5047706;28;20044;-70
2023/10/25 02:18:59;;;;;;;4.20;2.53;;;;;;;7.96;100.00;100021.38;5049519;28;20029;-70
2023/10/25 02:21:25;;;;;;;3.78;2.72;;;;;;;7.95;100.00;100017.91;5051446;28;20040;-69
2023/10/25 02:23:50;;;;;;;7.38;3.10;;;;;;;7.83;100.00;100001.75;5066072;28;20028;-69
2023/10/25 02:26:16;;;;;;;7.00;2.53;;;;;;;7.94;100.00;100018.94;5062720;28;20124;-69
2023/10/25 02:28:41;;;;;;;7.28;2.85;;;;;;;7.92;100.00;100013.00;5070220;28;20582;-69
2023/10/25 02:31:06;;;;;;;4.22;2.55;;;;;;;7.96;100.00;100019.53;5052171;28;20040;-69
2023/10/25 02:33:32;;;;;;;6.90;2.53;;;;;;;7.97;100.00;100012.41;5070325;28;20062;-70
2023/10/25 02:35:57;;;;;;;8.65;2.92;;;;;;;7.97;100.00;100002.59;5052198;28;20090;-70
2023/10/25 02:38:22;;;;;;;7.03;3.08;;;;;;;7.97;100.00;100007.09;5070166;28;20399;-70
2023/10/25 02:40:48;;;;;;;6.35;2.40;;;;;;;7.96;100.00;99997.47;5052168;28;20119;-70
2023/10/25 02:43:13;;;;;;;8.05;3.47;;;;;;;8.03;100.00;100004.44;5052012;28;20086;-69
2023/10/25 02:45:38;;;;;;;3.42;2.80;;;;;;;7.97;100.00;99986.69;5069775;28;20035;-69
2023/10/25 02:48:11;;;;;;;8.23;3.20;;;;;;;8.08;100.00;99998.53;5069933;28;20041;-69
2023/10/25 02:50:37;;;;;;;8.32;4.25;;;;;;;8.06;100.00;100003.22;5069752;28;20028;-69
2023/10/25 02:53:02;;;;;;;6.50;2.72;;;;;;;8.08;100.00;99990.56;5051896;28;20041;-70
2023/10/25 02:55:28;;;;;;;6.90;3.33;;;;;;;8.08;100.00;99982.63;5069909;28;20063;-69
2023/10/25 02:57:54;;;;;;;8.10;3.20;;;;;;;8.08;100.00;99977.31;5069655;28;20071;-69
2023/10/25 03:00:19;;;;;;;24.83;4.10;;;;;;;8.06;100.00;99974.84;5069563;28;20044;-69
2023/10/25 03:02:45;;;;;;;14.45;4.65;;;;;;;8.07;100.00;99976.50;5069680;28;20487;-69
2023/10/25 03:05:11;;;;;;;11.30;4.88;;;;;;;7.96;100.00;99952.34;5069677;28;20394;-69
2023/10/25 03:07:36;;;;;;;8.23;4.50;;;;;;;8.03;100.00;99959.31;5069539;28;20032;-69
2023/10/25 03:10:02;;;;;;;10.38;3.78;;;;;;;8.03;100.00;99958.50;5069585;28;20029;-69
2023/10/25 03:12:27;;;;;;;13.63;4.25;;;;;;;8.02;100.00;99965.66;5069689;28;20099;-69
2023/10/25 03:14:53;;;;;;;8.40;4.32;;;;;;;8.02;100.00;99959.53;5068987;28;20863;-69
2023/10/25 03:17:18;;;;;;;17.17;4.68;;;;;;;7.95;100.00;99948.06;5050813;28;20045;-69
2023/10/25 03:19:43;;;;;;;9.82;3.85;;;;;;;8.01;100.00;99948.06;5050097;28;20128;-69
2023/10/25 03:22:09;;;;;;;13.45;4.47;;;;;;;8.00;100.00;99940.31;5050203;28;20032;-70
2023/10/25 03:24:34;;;;;;;11.95;4.63;;;;;;;8.03;100.00;99951.34;5041563;28;20169;-70
2023/10/25 03:26:59;;;;;;;12.90;4.95;;;;;;;8.04;100.00;99945.03;5055136;28;20130;-69
2023/10/25 03:29:25;;;;;;;16.27;4.45;;;;;;;8.04;100.00;99938.88;5055706;28;20033;-69
2023/10/25 03:31:53;;;;;;;7.78;3.67;;;;;;;8.03;100.00;99948.69;5068638;28;20567;-70
2023/10/25 03:34:18;;;;;;;12.27;4.78;;;;;;;8.02;100.00;99935.63;5069173;28;20036;-70
2023/10/25 03:36:44;;;;;;;6.97;3.65;;;;;;;8.06;100.00;99942.97;5068871;28;20444;-69
2023/10/25 03:39:14;;;;;;;15.45;4.75;;;;;;;8.08;100.00;99938.28;5068866;28;20040;-70
2023/10/25 03:41:40;;;;;;;11.10;4.25;;;;;;;8.04;100.00;99925.59;5035446;28;20048;-69
2023/10/25 03:44:05;;;;;;;10.20;4.22;;;;;;;8.03;100.00;99930.09;5049810;28;20032;-69
2023/10/25 03:46:31;;;;;;;10.35;3.40;;;;;;;8.09;100.00;99931.94;5031197;28;20392;-69
2023/10/25 03:48:56;;;;;;;12.38;4.32;;;;;;;8.08;100.00;99937.47;5049712;28;20044;-70
2023/10/25 03:51:21;;;;;;;12.43;4.32;;;;;;;8.10;100.00;99938.91;5049557;28;20040;-69
2023/10/25 03:53:47;;;;;;;11.20;4.13;;;;;;;8.10;100.00;99924.81;5067073;28;20039;-70
2023/10/25 03:56:12;;;;;;;8.70;4.00;;;;;;;8.11;100.00;99913.16;5050436;28;20032;-70
2023/10/25 03:58:37;;;;;;;9.07;3.38;;;;;;;8.12;100.00;99917.44;5068435;28;20033;-70
2023/10/25 04:01:05;;;;;;;8.75;4.57;;;;;;;8.11;100.00;99910.50;5068551;28;20483;-70
2023/10/25 04:03:31;;;;;;;6.82;4.00;;;;;;;8.11;100.00;99911.31;5068398;28;20810;-69
2023/10/25 04:05:56;;;;;;;6.38;3.95;;;;;;;8.09;100.00;99921.31;5068502;28;20036;-69
2023/10/25 04:08:23;;;;;;;9.43;3.97;;;;;;;8.16;100.00;99916.03;5068325;28;20036;-69
2023/10/25 04:10:50;;;;;;;7.43;3.80;;;;;;;8.11;100.00;99903.34;5068295;28;20035;-70
2023/10/25 04:13:16;;;;;;;6.63;4.00;;;;;;;8.15;100.00;99906.44;5050601;28;20028;-69
2023/10/25 04:15:41;;;;;;;6.88;3.55;;;;;;;8.10;100.00;99901.72;5050375;28;20061;-69
2023/10/25 04:18:09;;;;;;;7.43;3.53;;;;;;;8.20;100.00;99900.47;5031133;28;20094;-70
2023/10/25 04:20:34;;;;;;;8.55;3.42;;;;;;;8.21;100.00;99904.78;5031504;28;20029;-69
2023/10/25 04:23:00;;;;;;;8.20;3.97;;;;;;;8.21;100.00;99902.94;5049024;28;20051;-70
2023/10/25 04:25:26;;;;;;;10.63;5.20;;;;;;;8.22;100.00;99904.56;5049014;28;20028;-70
2023/10/25 04:27:53;;;;;;;9.38;3.58;;;;;;;8.21;100.00;99896.81;5049164;28;20032;-70
2023/10/25 04:30:18;;;;;;;8.82;3.42;;;;;;;8.26;100.00;99911.13;5048943;28;20031;-70
2023/10/25 04:32:46;;;;;;;10.55;4.13;;;;;;;8.23;100.00;99897.44;5048753;28;20029;-69
2023/10/25 04:35:12;;;;;;;9.80;3.33;;;;;;;8.26;100.00;99905.00;5049977;28;20037;-69
2023/10/25 04:37:37;;;;;;;9.35;4.10;;;;;;;8.29;100.00;99896.59;5067889;28;20039;-69
2023/10/25 04:40:03;;;;;;;7.22;3.75;;;;;;;8.31;100.00;99910.50;5049902;28;20028;-69
2023/10/25 04:42:29;;;;;;;9.65;4.28;;;;;;;8.32;100.00;99902.31;5049550;28;20508;-70
2023/10/25 04:44:54;;;;;;;9.52;4.03;;;;;;;8.33;100.00;99890.69;5067803;28;20029;-70
2023/10/25 04:47:19;;;;;;;7.43;3.50;;;;;;;8.38;100.00;99891.91;5067753;28;20039;-69
2023/10/25 04:49:45;;;;;;;7.97;3.70;;;;;;;8.40;100.00;99895.19;5048502;28;20029;-69
2023/10/25 04:52:10;;;;;;;11.73;3.75;;;;;;;8.39;100.00;99883.75;5048570;28;20111;-69
2023/10/25 04:54:35;;;;;;;10.45;4.00;;;;;;;8.45;100.00;99890.09;5048507;28;20099;-70
2023/10/25 04:57:01;;;;;;;8.55;3.53;;;;;;;8.43;100.00;99879.66;5048071;28;20609;-70
2023/10/25 04:59:30;;;;;;;6.07;3.50;;;;;;;8.47;100.00;99866.78;5034241;28;21043;-70
2023/10/25 05:01:55;;;;;;;7.85;3.80;;;;;;;8.51;100.00;99875.97;5067456;28;20029;-70
2023/10/25 05:04:20;;;;;;;6.97;3.13;;;;;;;8.51;100.00;99868.84;5067365;28;20031;-70
2023/10/25 05:06:46;;;;;;;8.07;3.58;;;;;;;8.55;100.00;99866.56;5049583;28;20067;-70
2023/10/25 05:09:12;;;;;;;5.63;3.25;;;;;;;8.56;100.00;99857.56;5067334;28;20544;-70
2023/10/25 05:11:38;;;;;;;8.88;3.67;;;;;;;8.57;100.00;99851.22;5049410;28;20020;-70
2023/10/25 05:14:04;;;;;;;6.20;3.13;;;;;;;8.58;100.00;99854.69;5067214;28;20032;-69
2023/10/25 05:16:29;;;;;;;6.50;3.55;;;;;;;8.60;100.00;99845.50;5067663;28;20040;-70
2023/10/25 05:18:55;;;;;;;7.95;3.75;;;;;;;8.57;100.00;99832.63;5067466;28;20039;-69
2023/10/25 05:21:26;;;;;;;9.95;3.50;;;;;;;8.56;100.00;99829.13;5067062;28;20028;-70
2023/10/25 05:23:52;;;;;;;8.32;3.13;;;;;;;8.62;100.00;99837.28;5067195;28;20403;-70
2023/10/25 05:26:18;;;;;;;5.85;3.20;;;;;;;8.59;100.00;99829.75;5065742;28;20111;-70
2023/10/25 05:28:43;;;;;;;8.23;3.05;;;;;;;8.63;100.00;99823.00;5048158;28;20099;-70
2023/10/25 05:31:15;;;;;;;5.78;3.85;;;;;;;8.61;100.00;99825.03;5047898;28;20041;-69
2023/10/25 05:33:40;;;;;;;;;;;;;;;8.66;100.00;99826.03;5048547;28;20044;-70
2023/10/25 05:36:06;;;;;;;4.33;2.90;;;;;;;8.64;100.00;99827.28;5047868;28;19920;-70
2023/10/25 05:38:32;;;;;;;11.30;3.60;;;;;;;8.61;100.00;99817.06;5047782;28;20845;-70
2023/10/25 05:40:58;;;;;;;5.82;3.33;;;;;;;8.60;100.00;99812.78;5029856;28;20037;-70
2023/10/25 05:43:30;;;;;;;6.35;3.30;;;;;;;8.61;100.00;99812.56;5029926;28;20021;-69
2023/10/25 05:45:56;;;;;;;;;;;;;;;8.64;100.00;99811.34;5030513;28;20056;-69
2023/10/25 05:48:22;;;;;;;8.65;3.63;;;;;;;8.61;100.00;99807.25;5065352;28;19912;-70
2023/10/25 05:50:50;;;;;;;6.53;2.95;;;;;;;8.57;100.00;99795.44;5067041;28;20043;-69
2023/10/25 05:53:15;;;;;;;6.97;2.95;;;;;;;8.58;100.00;99810.34;5049848;28;20503;-70
2023/10/25 05:55:41;;;;;;;6.60;3.05;;;;;;;8.60;100.00;99808.28;5052778;28;20048;-69
2023/10/25 05:58:07;;;;;;;7.05;2.75;;;;;;;8.58;100.00;99794.38;5070431;28;20166;-70
2023/10/25 06:00:33;;;;;;;7.97;3.50;;;;;;;8.57;100.00;99790.09;5052490;28;20020;-70
2023/10/25 06:03:01;;;;;;;5.82;2.97;;;;;;;8.60;100.00;99788.88;5051198;28;20033;-70
2023/10/25 06:05:31;;;;;;;8.05;3.72;;;;;;;8.64;100.00;99798.03;5064279;28;20036;-70
2023/10/25 06:07:57;;;;;;;8.15;3.03;;;;;;;8.62;100.00;99790.28;5070660;28;20799;-70
2023/10/25 06:10:23;;;;;;;7.68;4.10;;;;;;;8.63;100.00;99783.94;5070328;28;20028;-70
2023/10/25 06:12:48;;;;;;;7.25;3.75;;;;;;;8.63;100.00;99791.09;5070553;28;20395;-69
2023/10/25 06:15:14;;;;;;;6.88;3.45;;;;;;;8.63;100.00;99786.59;5070195;28;20125;-69
2023/10/25 06:17:39;;;;;;;5.55;3.13;;;;;;;8.59;100.00;99785.38;5070443;28;20568;-70
2023/10/25 06:20:05;;;;;;;9.32;3.20;;;;;;;8.61;100.00;99777.22;5051957;28;20097;-70
2023/10/25 06:22:31;;;;;;;8.77;4.43;;;;;;;8.65;100.00;99783.75;5069903;28;20062;-69
2023/10/25 06:24:56;;;;;;;7.65;3.22;;;;;;;8.61;100.00;99778.00;5069179;28;20040;-70
2023/10/25 06:27:21;;;;;;;6.63;3.97;;;;;;;8.62;100.00;99769.03;5070001;28;20029;-70
2023/10/25 06:29:47;;;;;;;10.98;4.55;;;;;;;8.68;100.00;99780.66;5051783;28;20021;-69
2023/10/25 06:32:12;;;;;;;6.93;3.35;;;;;;;8.69;100.00;99776.97;5054312;28;20033;-70
2023/10/25 06:34:37;;;;;;;9.95;3.70;;;;;;;8.70;100.00;99782.09;5068970;28;20093;-69
2023/10/25 06:37:05;;;;;;;5.68;3.35;;;;;;;8.71;100.00;99762.44;5069685;28;20484;-69
2023/10/25 06:39:31;;;;;;;9.32;3.35;;;;;;;8.74;100.00;99767.31;5069646;28;20039;-70
2023/10/25 06:41:57;;;;;;;6.28;2.78;;;;;;;8.76;100.00;99759.97;5069819;28;20033;-69
2023/10/25 06:44:23;;;;;;;4.75;2.75;;;;;;;8.78;100.00;99754.44;5069745;28;20036;-70
2023/10/25 06:46:48;;;;;;;6.28;3.08;;;;;;;8.83;100.00;99754.63;5069520;28;20333;-70
2023/10/25 06:49:14;;;;;;;6.47;2.70;;;;;;;8.86;100.00;99742.75;5053881;28;20060;-70
2023/10/25 06:51:40;;;;;;;5.70;2.80;;;;;;;8.89;100.00;99734.34;5050154;28;20480;-70
2023/10/25 06:54:06;;;;;;;5.75;2.85;;;;;;;8.88;100.00;99727.38;5049724;28;20420;-70
2023/10/25 06:56:33;;;;;;;8.95;2.85;;;;;;;8.91;100.00;99733.09;5049708;28;20033;-70
2023/10/25 06:58:58;;;;;;;4.10;2.17;;;;;;;8.88;100.00;99722.91;5050120;28;20029;-70
2023/10/25 07:01:27;;;;;;;8.32;2.28;;;;;;;8.95;100.00;99726.31;5031725;28;20029;-70
2023/10/25 07:03:56;;;;;;;4.20;2.13;;;;;;;8.96;100.00;99716.50;5031451;28;20036;-70
2023/10/25 07:06:22;;;;;;;7.22;2.60;;;;;;;9.00;100.00;99712.38;5049323;28;20021;-70
2023/10/25 07:08:48;;;;;;;5.07;2.53;;;;;;;8.97;100.00;99710.97;5050055;28;20060;-69
2023/10/25 07:11:14;;;;;;;3.38;2.22;;;;;;;8.99;100.00;99705.44;5049899;28;20040;-70
2023/10/25 07:13:40;;;;;;;7.05;2.55;;;;;;;8.99;100.00;99706.25;5049968;28;20044;-70
2023/10/25 07:16:06;;;;;;;5.53;2.38;;;;;;;9.01;100.00;99708.69;5049007;28;20076;-69
2023/10/25 07:18:32;;;;;;;4.40;2.47;;;;;;;8.95;100.00;99699.72;5047151;28;20084;-69
2023/10/25 07:20:58;;;;;;;3.08;2.30;;;;;;;9.02;100.00;99699.69;5047692;28;20052;-69
2023/10/25 07:23:23;;;;;;;6.32;2.65;;;;;;;9.02;100.00;99702.34;5030398;28;20036;-69
2023/10/25 07:25:49;;;;;;;7.70;2.83;;;;;;;9.02;100.00;99694.38;5066147;28;20032;-70
2023/10/25 07:28:14;;;;;;;7.35;2.25;;;;;;;9.03;100.00;99696.00;5056395;28;20031;-69
2023/10/25 07:30:40;;;;;;;3.72;2.30;;;;;;;9.04;100.00;99688.81;5047111;28;20028;-67
2023/10/25 07:33:06;;;;;;;4.22;2.67;;;;;;;9.04;100.00;99681.69;5047121;28;20036;-70
2023/10/25 07:35:31;;;;;;;7.13;2.58;;;;;;;9.04;100.00;99683.50;5048743;28;20028;-71
2023/10/25 07:37:56;;;;;;;4.22;2.08;;;;;;;9.06;100.00;99684.91;5064068;28;20028;-69
2023/10/25 07:40:22;;;;;;;7.95;2.05;;;;;;;9.07;100.00;99678.59;5056212;28;20090;-71
2023/10/25 07:42:47;;;;;;;2.50;1.90;;;;;;;9.11;100.00;99673.63;5056803;28;20028;-69
2023/10/25 07:45:13;;;;;;;5.60;2.40;;;;;;;9.10;100.00;99672.84;5064929;28;20778;-70
2023/10/25 07:47:38;;;;;;;4.43;2.72;;;;;;;9.13;100.00;99677.72;5058188;28;20039;-70
2023/10/25 07:50:05;;;;;;;3.97;2.20;;;;;;;9.14;100.00;99675.88;5065778;28;20030;-70
2023/10/25 07:52:31;;;;;;;7.22;2.50;;;;;;;9.14;100.00;99667.88;5047172;28;20036;-68
2023/10/25 07:54:57;;;;;;;5.50;2.60;;;;;;;9.18;100.00;99663.78;5063265;28;20028;-68
2023/10/25 07:57:25;;;;;;;6.18;2.28;;;;;;;9.11;100.00;99652.38;5065368;28;20032;-73
2023/10/25 07:59:50;;;;;;;9.73;2.90;;;;;;;9.09;100.00;99641.13;5065334;28;20120;-72
2023/10/25 08:02:16;;;;;;;3.85;2.53;;;;;;;9.20;100.00;99662.53;5065809;28;20558;-70
2023/10/25 08:04:41;;;;;;;4.80;2.45;;;;;;;9.16;100.00;99648.03;5054190;28;20478;-67
2023/10/25 08:07:07;;;;;;;5.45;2.97;;;;;;;9.21;100.00;99640.19;5045728;28;20033;-69
2023/10/25 08:09:32;;;;;;;4.72;2.28;;;;;;;9.21;100.00;99634.88;5046138;28;20487;-70
2023/10/25 08:11:58;;;;;;;4.18;3.00;;;;;;;9.26;100.00;99642.22;5046230;28;20037;-70
2023/10/25 08:14:23;;;;;;;9.10;3.65;;;;;;;9.26;100.00;99630.78;5046394;28;20094;-70
2023/10/25 08:16:48;;;;;;;6.63;3.03;;;;;;;9.27;100.00;99625.22;5045329;28;20074;-71
2023/10/25 08:19:15;;;;;;;5.32;3.08;;;;;;;9.27;100.00;99613.75;5030628;28;20111;-70
2023/10/25 08:21:41;;;;;;;7.00;2.97;;;;;;;9.33;100.00;99618.22;5013373;28;20032;-70
2023/10/25 08:24:07;;;;;;;6.40;3.78;;;;;;;9.37;100.00;99614.88;5029452;28;20085;-70
2023/10/25 08:26:41;;;;;;;8.07;3.80;;;;;;;9.38;100.00;99602.41;5028966;28;20029;-70
2023/10/25 08:29:07;;;;;;;7.68;4.18;;;;;;;9.43;100.00;99603.38;5047768;28;20025;-70
2023/10/25 08:31:34;;;;;;;7.97;3.97;;;;;;;9.46;100.00;99610.13;5054661;28;20367;-70
2023/10/25 08:33:59;;;;;;;6.55;4.57;;;;;;;9.45;100.00;99600.50;5053331;28;20029;-70
2023/10/25 08:36:25;;;;;;;6.03;3.33;;;;;;;9.41;100.00;99592.13;5037672;28;20071;-70
2023/10/25 08:38:51;;;;;;;6.70;3.78;;;;;;;9.43;100.00;99590.06;5047897;28;20063;-70
2023/10/25 08:41:19;;;;;;;9.20;4.18;;;;;;;9.48;100.00;99596.56;5047857;28;20060;-69
2023/10/25 08:43:45;;;;;;;8.70;4.28;;;;;;;9.49;100.00;99596.38;5047936;28;20039;-70
2023/10/25 08:46:13;;;;;;;6.00;3.80;;;;;;;9.49;100.00;99592.91;5029251;28;20075;-70
2023/10/25 08:48:38;;;;;;;4.85;3.40;;;;;;;9.56;100.00;99591.78;5050122;28;20108;-70
2023/10/25 08:51:05;;;;;;;10.90;4.18;;;;;;;9.62;100.00;99590.09;5028964;28;20556;-68
2023/10/25 08:53:31;;;;;;;7.15;3.88;;;;;;;9.65;100.00;99582.47;5066453;28;20098;-69
2023/10/25 08:55:58;;;;;;;6.82;3.13;;;;;;;9.65;100.00;99576.34;5066807;28;20410;-69
2023/10/25 08:58:24;;;;;;;6.43;3.63;;;;;;;9.65;100.00;99571.81;5066379;28;20025;-69
2023/10/25 09:00:51;;;;;;;6.47;3.80;;;;;;;9.65;100.00;99581.66;5066564;28;20039;-69
2023/10/25 09:03:41;;;;;;;5.63;3.60;;;;;;;9.68;100.00;99567.09;5066691;28;20487;-69
2023/10/25 09:06:08;;;;;;;4.93;3.22;;;;;;;9.68;100.00;99562.56;5053851;28;20047;-69
2023/10/25 09:08:35;;;;;;;6.55;4.05;;;;;;;9.70;100.00;99562.38;5066382;28;20484;-69
2023/10/25 09:11:10;;;;;;;5.35;3.13;;;;;;;9.71;100.00;99563.97;5049155;28;20162;-69
2023/10/25 09:13:41;;;;;;;6.82;3.63;;;;;;;9.73;100.00;99559.25;5045391;28;20028;-70
2023/10/25 09:16:11;;;;;;;7.28;3.58;;;;;;;9.77;100.00;99563.06;5033387;28;20068;-71
2023/10/25 09:18:38;;;;;;;7.47;3.85;;;;;;;9.77;100.00;99553.25;5033975;28;20047;-71
2023/10/25 09:21:05;;;;;;;7.10;4.07;;;;;;;9.74;100.00;99543.03;5044571;28;20068;-71
2023/10/25 09:23:33;;;;;;;7.30;3.53;;;;;;;9.71;100.00;99534.69;5051544;28;20028;-71
2023/10/25 09:25:59;;;;;;;8.43;3.63;;;;;;;9.70;100.00;99530.41;5057680;28;20773;-70
2023/10/25 09:28:29;;;;;;;7.75;4.13;;;;;;;9.62;100.00;99519.03;5028391;28;20039;-69
2023/10/25 09:30:55;;;;;;;7.72;4.60;;;;;;;9.56;100.00;99514.59;5048936;28;20029;-69
2023/10/25 09:33:22;;;;;;;8.10;3.97;;;;;;;9.41;100.00;99509.66;5049177;28;20029;-68
2023/10/25 09:35:48;;;;;;;11.00;4.38;;;;;;;9.41;100.00;99512.31;5049114;28;20040;-69
2023/10/25 09:38:14;;;;;;;7.85;4.18;;;;;;;9.39;100.00;99510.91;5049296;28;20029;-69
2023/10/25 09:40:41;;;;;;;6.85;4.60;;;;;;;9.34;100.00;99516.88;5049297;28;20039;-69
2023/10/25 09:43:17;;;;;;;9.30;4.00;;;;;;;9.26;100.00;99508.38;5031237;28;20098;-69
2023/10/25 09:45:49;;;;;;;11.93;6.13;;;;;;;9.32;100.00;99518.94;5055892;28;20043;-69
2023/10/25 09:48:15;;;;;;;;;;;;;;;9.35;100.00;99528.34;5068668;28;20093;-67
2023/10/25 09:50:47;;;;;;;8.40;4.07;;;;;;;9.35;100.00;99525.66;5050399;28;19993;-70
2023/10/25 09:53:38;;;;;;;7.90;4.35;;;;;;;9.38;100.00;99533.25;5050209;28;20025;-69
2023/10/25 09:56:05;;;;;;;9.85;4.30;;;;;;;9.38;100.00;99514.63;5068228;28;20353;-67
2023/10/25 09:58:34;;;;;;;13.00;4.80;;;;;;;9.37;100.00;99511.13;5070356;28;20062;-67
2023/10/25 10:01:00;;;;;;;10.73;5.22;;;;;;;9.36;100.00;99501.50;5050966;28;20029;-68
2023/10/25 10:03:45;;;;;;;10.15;4.28;;;;;;;9.33;100.00;99485.19;5050571;28;20060;-68
2023/10/25 10:06:34;;;;;;;9.10;4.40;;;;;;;9.22;100.00;99478.72;5052446;28;20830;-68
2023/10/25 10:09:05;;;;;;;6.30;3.95;;;;;;;9.14;100.00;99479.03;5069366;28;20534;-68
2023/10/25 10:11:38;;;;;;;10.60;5.05;;;;;;;9.05;100.00;99464.41;5069072;28;20435;-68
2023/10/25 10:14:29;;;;;;;10.90;5.00;;;;;;;9.02;100.00;99465.66;5069345;28;20039;-68
2023/10/25 10:17:18;;;;;;;8.20;4.13;;;;;;;9.00;100.00;99460.56;5069974;28;20365;-68
2023/10/25 10:19:46;;;;;;;11.77;5.13;;;;;;;8.99;100.00;99458.13;5069621;28;20068;-69
2023/10/25 10:22:13;;;;;;;13.27;4.68;;;;;;;8.98;100.00;99451.97;5070307;28;20028;-68
2023/10/25 10:24:53;;;;;;;10.60;5.22;;;;;;;9.04;100.00;99452.13;5070293;28;20028;-68
2023/10/25 10:27:19;;;;;;;11.20;5.05;;;;;;;9.04;100.00;99454.78;5070084;28;20017;-68
2023/10/25 10:29:46;;;;;;;11.90;5.60;;;;;;;9.03;100.00;99447.84;5069945;28;20021;-68
2023/10/25 10:32:13;;;;;;;8.90;4.38;;;;;;;8.98;100.00;99432.56;5069783;28;20028;-69
2023/10/25 10:34:38;;;;;;;10.23;5.60;;;;;;;9.02;100.00;99430.28;5032951;28;20037;-68
2023/10/25 10:37:08;;;;;;;9.07;4.87;;;;;;;9.02;100.00;99431.09;5051125;28;20028;-69
2023/10/25 10:39:36;;;;;;;13.40;7.30;;;;;;;9.01;100.00;99424.13;5058246;28;20788;-68
2023/10/25 10:42:02;;;;;;;11.32;5.60;;;;;;;9.00;100.00;99415.34;5054254;28;20946;-68
2023/10/25 10:44:28;;;;;;;11.70;6.35;;;;;;;9.02;100.00;99406.34;5050730;28;20056;-68
2023/10/25 10:46:58;;;;;;;10.70;4.90;;;;;;;9.02;100.00;99409.00;5032522;28;20052;-68
2023/10/25 10:49:28;;;;;;;10.80;4.72;;;;;;;9.00;100.00;99399.41;5050659;28;20025;-69
2023/10/25 10:51:55;;;;;;;12.38;5.15;;;;;;;8.97;100.00;99383.09;5050518;28;20052;-69
2023/10/25 10:54:20;;;;;;;13.23;5.10;;;;;;;8.93;100.00;99373.91;5050478;28;20059;-69
2023/10/25 10:56:46;;;;;;;12.73;5.00;;;;;;;8.98;100.00;99366.88;5050357;28;20037;-70
2023/10/25 10:59:12;;;;;;;8.77;4.80;;;;;;;9.03;100.00;99360.09;5032468;28;20033;-69
2023/10/25 11:01:37;;;;;;;10.98;5.22;;;;;;;8.99;100.00;99359.75;5050446;28;20389;-69
2023/10/25 11:04:02;;;;;;;14.23;5.95;;;;;;;9.01;100.00;99360.31;5032567;28;20802;-69
2023/10/25 11:06:28;;;;;;;9.38;5.20;;;;;;;9.05;100.00;99356.19;5050567;28;20040;-69
2023/10/25 11:08:53;;;;;;;14.75;5.63;;;;;;;9.01;100.00;99344.34;5050576;28;20349;-69
2023/10/25 11:11:22;;;;;;;8.10;5.13;;;;;;;9.08;100.00;99347.75;5050116;28;20041;-69
2023/10/25 11:13:51;;;;;;;11.60;4.30;;;;;;;9.10;100.00;99339.56;5059283;28;20116;-69
2023/10/25 11:16:17;;;;;;;9.70;5.57;;;;;;;9.14;100.00;99338.91;5069189;28;20450;-69
2023/10/25 11:18:43;;;;;;;10.40;4.50;;;;;;;9.16;100.00;99328.81;5068396;28;20040;-68
2023/10/25 11:21:08;;;;;;;12.52;5.30;;;;;;;9.16;100.00;99320.03;5069263;28;20406;-68
2023/10/25 11:23:34;;;;;;;8.70;4.05;;;;;;;9.19;100.00;99316.91;5069095;28;20032;-68
2023/10/25 11:25:59;;;;;;;9.60;3.85;;;;;;;9.18;100.00;99324.09;5069064;28;20035;-67